Time;durP1;ratioP1;P1;durP2;ratioP2;P2;SDS_P1;SDS_P2;PMS_P1;PMS_P2;Temp;Humidity;BMP_temperature;BMP_pressure;BME280_temperature;BME280_humidity;BME280_pressure;Samples;Min_cycle;Max_cycle;Signal;HPM_P1;HPM_P2
2023/05/08 00:01:08;;;;;;;5.90;3.83;;;4.70;99.90;;;;;;4452580;28;655807;-74
2023/05/08 00:03:57;;;;;;;8.83;4.10;;;4.70;99.90;;;;;;4427025;28;655765;-73
2023/05/08 00:06:44;;;;;;;5.37;3.27;;;4.70;99.90;;;;;;4443392;28;655495;-74
2023/05/08 00:09:31;;;;;;;5.50;3.47;;;4.80;99.90;;;;;;4422568;28;655522;-73
2023/05/08 00:12:18;;;;;;;6.00;3.77;;;4.80;99.90;;;;;;4447095;28;655161;-73
2023/05/08 00:15:07;;;;;;;4.70;3.17;;;4.80;99.90;;;;;;4425456;28;655312;-73
2023/05/08 00:17:54;;;;;;;7.73;4.27;;;4.80;99.90;;;;;;4448687;28;655413;-74
2023/05/08 00:20:42;;;;;;;6.43;3.53;;;4.90;99.90;;;;;;4425583;28;655370;-74
2023/05/08 00:23:30;;;;;;;6.17;4.00;;;4.90;99.90;;;;;;4439354;28;656009;-73
2023/05/08 00:26:17;;;;;;;5.63;3.70;;;4.80;99.90;;;;;;4446650;28;655619;-73
2023/05/08 00:29:06;;;;;;;7.83;3.93;;;4.80;99.90;;;;;;4443416;28;655120;-74
2023/05/08 00:31:53;;;;;;;6.57;3.73;;;4.90;99.90;;;;;;4446015;28;655456;-73
2023/05/08 00:34:40;;;;;;;6.27;3.70;;;4.90;99.90;;;;;;4421697;28;655794;-73
2023/05/08 00:37:29;;;;;;;6.77;3.90;;;4.90;99.90;;;;;;4444508;28;655943;-73
2023/05/08 00:40:16;;;;;;;5.73;3.60;;;4.90;99.90;;;;;;4423713;28;657203;-73
2023/05/08 00:43:03;;;;;;;6.97;3.77;;;4.90;99.90;;;;;;4444941;28;655672;-73
2023/05/08 00:45:50;;;;;;;5.67;4.10;;;4.90;99.90;;;;;;4416369;28;655698;-73
2023/05/08 00:48:38;;;;;;;7.07;3.20;;;4.90;99.90;;;;;;4442025;28;656684;-74
2023/05/08 00:51:25;;;;;;;6.20;3.80;;;4.90;99.90;;;;;;4434827;28;655601;-73
2023/05/08 00:54:14;;;;;;;7.10;4.07;;;4.90;99.90;;;;;;4444440;28;657175;-74
2023/05/08 00:57:01;;;;;;;6.50;4.00;;;4.90;99.90;;;;;;4423244;28;655394;-73
2023/05/08 00:59:48;;;;;;;6.33;3.97;;;4.90;99.90;;;;;;4441225;28;656784;-74
2023/05/08 01:02:36;;;;;;;6.70;4.10;;;4.90;99.90;;;;;;4419990;28;655822;-73
2023/05/08 01:05:23;;;;;;;7.30;4.33;;;4.90;99.90;;;;;;4443143;28;656375;-73
2023/05/08 01:08:10;;;;;;;6.37;4.20;;;4.80;99.90;;;;;;4428333;28;655506;-74
2023/05/08 01:11:09;;;;;;;9.33;4.63;;;4.90;99.90;;;;;;4443764;28;655534;-73
2023/05/08 01:14:03;;;;;;;7.13;3.73;;;4.90;99.90;;;;;;4419952;28;655785;-73
2023/05/08 01:16:55;;;;;;;8.63;4.10;;;4.90;99.90;;;;;;4399768;28;655629;-73
2023/05/08 01:20:10;;;;;;;6.50;4.27;;;4.90;99.90;;;;;;4416992;28;655831;-73
2023/05/08 01:23:49;;;;;;;5.17;3.40;;;4.90;99.90;;;;;;4397381;28;656184;-73
2023/05/08 01:26:58;;;;;;;5.73;3.70;;;4.90;99.90;;;;;;4423181;28;655378;-73
2023/05/08 01:30:11;;;;;;;9.17;4.40;;;4.90;99.90;;;;;;4405435;28;655802;-73
2023/05/08 01:33:02;;;;;;;7.03;3.85;;;5.00;99.90;;;;;;4418891;28;656005;-74
2023/05/08 01:35:50;;;;;;;7.00;4.10;;;5.00;99.90;;;;;;4422937;28;655546;-73
2023/05/08 01:38:40;;;;;;;10.00;4.37;;;5.00;99.90;;;;;;4414637;28;657082;-73
2023/05/08 01:41:28;;;;;;;9.30;4.00;;;5.00;99.90;;;;;;4413449;28;657511;-73
2023/05/08 01:44:17;;;;;;;7.83;4.10;;;5.00;99.90;;;;;;4430370;28;655749;-73
2023/05/08 01:47:05;;;;;;;7.70;4.60;;;5.00;99.90;;;;;;4446162;28;656860;-73
2023/05/08 01:50:04;;;;;;;8.43;5.07;;;5.00;99.90;;;;;;4419225;28;656055;-73
2023/05/08 01:52:53;;;;;;;8.67;4.50;;;5.10;99.90;;;;;;4401731;28;656158;-73
2023/05/08 01:55:40;;;;;;;9.38;4.97;;;5.10;99.90;;;;;;4416117;28;655351;-73
2023/05/08 01:58:27;;;;;;;8.20;5.17;;;5.00;99.90;;;;;;4446972;28;655615;-73
2023/05/08 02:01:15;;;;;;;8.90;5.17;;;5.00;99.90;;;;;;4442380;28;655419;-73
2023/05/08 02:04:02;;;;;;;6.53;4.23;;;5.00;99.90;;;;;;4446755;28;655725;-73
2023/05/08 02:06:52;;;;;;;6.50;4.53;;;4.90;99.90;;;;;;4441138;28;655590;-73
2023/05/08 02:09:39;;;;;;;7.17;4.83;;;4.90;99.90;;;;;;4446429;28;655351;-74
2023/05/08 02:12:26;;;;;;;7.90;4.60;;;4.80;99.90;;;;;;4428237;28;655456;-74
2023/05/08 02:15:13;;;;;;;8.10;4.97;;;4.80;99.90;;;;;;4439173;28;656783;-73
2023/05/08 02:18:01;;;;;;;6.30;4.80;;;4.80;99.90;;;;;;4423459;28;655530;-73
2023/05/08 02:20:48;;;;;;;8.87;4.90;;;4.80;99.90;;;;;;4444473;28;655605;-74
2023/05/08 02:23:37;;;;;;;6.57;5.03;;;4.80;99.90;;;;;;4422180;28;655413;-73
2023/05/08 02:26:24;;;;;;;9.50;4.47;;;4.70;99.90;;;;;;4443697;28;655778;-73
2023/05/08 02:29:11;;;;;;;6.23;4.53;;;4.70;99.90;;;;;;4422459;28;655424;-73
2023/05/08 02:31:58;;;;;;;6.17;4.53;;;4.70;99.90;;;;;;4442482;28;656080;-74
2023/05/08 02:34:46;;;;;;;7.37;4.47;;;4.70;99.90;;;;;;4421908;28;656220;-74
2023/05/08 02:37:33;;;;;;;8.30;4.50;;;4.60;99.90;;;;;;4438570;28;655953;-74
2023/05/08 02:40:22;;;;;;;6.73;4.50;;;4.60;99.90;;;;;;4423033;28;655941;-73
2023/05/08 02:43:10;;;;;;;6.93;4.60;;;4.60;99.90;;;;;;4439345;28;655715;-73
2023/05/08 02:46:01;;;;;;;8.70;4.73;;;4.60;99.90;;;;;;4395803;28;655933;-73
2023/05/08 02:48:54;;;;;;;6.97;4.50;;;4.50;99.90;;;;;;4336761;28;659281;-73
2023/05/08 02:51:53;;;;;;;9.10;4.83;;;4.50;99.90;;;;;;4378076;28;655541;-73
2023/05/08 02:54:43;;;;;;;7.87;4.37;;;4.50;99.90;;;;;;4405798;28;655877;-73
2023/05/08 02:57:37;;;;;;;7.67;4.50;;;4.50;99.90;;;;;;4426520;28;656452;-73
2023/05/08 03:00:27;;;;;;;7.90;5.20;;;4.50;99.90;;;;;;4416845;28;655786;-73
2023/05/08 03:03:19;;;;;;;11.73;5.80;;;4.50;99.90;;;;;;4419468;28;655588;-73
2023/05/08 03:06:07;;;;;;;8.83;4.63;;;4.50;99.90;;;;;;4417788;28;656333;-73
2023/05/08 03:08:55;;;;;;;9.67;4.70;;;4.60;99.90;;;;;;4434212;28;655772;-73
2023/05/08 03:11:43;;;;;;;8.27;4.60;;;4.50;99.90;;;;;;4444207;28;655807;-74
2023/05/08 03:14:32;;;;;;;7.25;4.22;;;4.50;99.90;;;;;;4425302;28;655055;-73
2023/05/08 03:17:19;;;;;;;7.53;4.60;;;4.60;99.90;;;;;;4441990;28;656092;-74
2023/05/08 03:20:08;;;;;;;7.10;4.77;;;4.60;99.90;;;;;;4417194;28;655457;-74
2023/05/08 03:22:55;;;;;;;8.20;4.50;;;4.60;99.90;;;;;;4423442;28;655520;-73
2023/05/08 03:25:43;;;;;;;7.97;4.30;;;4.60;99.90;;;;;;4442201;28;655306;-72
2023/05/08 03:28:31;;;;;;;8.37;4.70;;;4.60;99.90;;;;;;4422698;28;658029;-73
2023/05/08 03:31:20;;;;;;;8.97;4.57;;;4.50;99.90;;;;;;4444312;28;656538;-74
2023/05/08 03:34:08;;;;;;;7.07;4.63;;;4.50;99.90;;;;;;4417597;28;656498;-73
2023/05/08 03:36:55;;;;;;;7.50;4.63;;;4.50;99.90;;;;;;4431872;28;655853;-73
2023/05/08 03:39:42;;;;;;;5.50;4.37;;;4.50;99.90;;;;;;4447584;28;655335;-73
2023/05/08 03:42:30;;;;;;;6.63;4.73;;;4.50;99.90;;;;;;4445429;28;655162;-73
2023/05/08 03:45:17;;;;;;;8.40;5.40;;;4.50;99.90;;;;;;4448496;28;655131;-74
2023/05/08 03:48:08;;;;;;;6.57;4.70;;;4.60;99.90;;;;;;4439580;28;655484;-73
2023/05/08 03:50:55;;;;;;;7.10;4.25;;;4.60;99.90;;;;;;4429493;28;655609;-73
2023/05/08 03:53:42;;;;;;;9.60;4.30;;;4.60;99.90;;;;;;4445849;28;657045;-73
2023/05/08 03:56:30;;;;;;;7.20;5.03;;;4.60;99.90;;;;;;4434775;28;655477;-73
2023/05/08 03:59:21;;;;;;;7.07;4.10;;;4.60;99.90;;;;;;4451000;28;655575;-73
2023/05/08 04:02:13;;;;;;;6.00;4.33;;;4.60;99.90;;;;;;4421126;28;655665;-73
2023/05/08 04:05:05;;;;;;;8.07;4.40;;;4.60;99.90;;;;;;4400758;28;656139;-73
2023/05/08 04:07:53;;;;;;;8.70;4.27;;;4.50;99.90;;;;;;4423209;28;657016;-74
2023/05/08 04:10:43;;;;;;;6.80;3.80;;;4.60;99.90;;;;;;4425928;28;655564;-74
2023/05/08 04:13:31;;;;;;;10.50;5.22;;;4.50;99.90;;;;;;4431015;28;656267;-73
2023/05/08 04:16:21;;;;;;;8.47;5.07;;;4.60;99.90;;;;;;4443807;28;657828;-74
2023/05/08 04:19:11;;;;;;;7.40;4.53;;;4.50;99.90;;;;;;4422681;28;657139;-73
2023/05/08 04:22:04;;;;;;;7.33;4.47;;;4.60;99.90;;;;;;4422418;28;656594;-73
2023/05/08 04:24:51;;;;;;;6.20;4.10;;;4.60;99.90;;;;;;4424871;28;655770;-73
2023/05/08 04:27:38;;;;;;;5.90;4.20;;;4.60;99.90;;;;;;4445855;28;656767;-73
2023/05/08 04:30:26;;;;;;;8.97;4.47;;;4.60;99.90;;;;;;4418923;28;655093;-74
2023/05/08 04:33:13;;;;;;;6.80;4.37;;;4.60;99.90;;;;;;4444369;28;656906;-73
2023/05/08 04:36:01;;;;;;;7.73;4.30;;;4.70;99.90;;;;;;4425039;28;655700;-73
2023/05/08 04:38:50;;;;;;;5.63;3.87;;;4.60;99.90;;;;;;4442204;28;656717;-73
2023/05/08 04:41:37;;;;;;;9.23;4.23;;;4.60;99.90;;;;;;4421187;28;656230;-74
2023/05/08 04:44:25;;;;;;;6.53;4.23;;;4.60;99.90;;;;;;4440311;28;655369;-73
2023/05/08 04:47:12;;;;;;;5.03;3.92;;;4.60;99.90;;;;;;4422495;28;656265;-74
2023/05/08 04:49:59;;;;;;;6.23;3.80;;;4.60;99.90;;;;;;4439420;28;655730;-73
2023/05/08 04:52:47;;;;;;;6.23;4.13;;;4.60;99.90;;;;;;4420980;28;655439;-73
2023/05/08 04:55:35;;;;;;;8.43;3.77;;;4.60;99.90;;;;;;4442218;28;655706;-73
2023/05/08 04:58:22;;;;;;;6.33;4.43;;;4.60;99.90;;;;;;4425188;28;656216;-73
2023/05/08 05:01:10;;;;;;;6.27;4.53;;;4.60;99.90;;;;;;4438528;28;655324;-74
2023/05/08 05:03:58;;;;;;;8.27;4.60;;;4.50;99.90;;;;;;4446660;28;656100;-73
2023/05/08 05:06:45;;;;;;;5.40;4.13;;;4.60;99.90;;;;;;4429156;28;655551;-73
2023/05/08 05:09:35;;;;;;;7.30;4.73;;;4.70;99.90;;;;;;4448429;28;655905;-73
2023/05/08 05:12:24;;;;;;;6.57;4.30;;;4.70;99.90;;;;;;4420008;28;655827;-73
2023/05/08 05:15:11;;;;;;;7.47;4.70;;;4.80;99.90;;;;;;4423402;28;655584;-73
2023/05/08 05:17:58;;;;;;;7.77;4.40;;;4.80;99.90;;;;;;4435034;28;656652;-73
2023/05/08 05:20:46;;;;;;;6.33;4.27;;;4.80;99.90;;;;;;4420343;28;656208;-73
2023/05/08 05:23:33;;;;;;;8.33;4.97;;;4.90;99.90;;;;;;4443766;28;655271;-73
2023/05/08 05:26:22;;;;;;;7.33;4.87;;;4.90;99.90;;;;;;4424968;28;655250;-74
2023/05/08 05:29:10;;;;;;;7.27;4.77;;;5.00;99.90;;;;;;4440636;28;655430;-73
2023/05/08 05:31:57;;;;;;;7.27;4.93;;;5.00;99.90;;;;;;4415696;28;656431;-73
2023/05/08 05:34:45;;;;;;;8.83;4.47;;;5.10;99.90;;;;;;4431494;28;655338;-73
2023/05/08 05:37:32;;;;;;;9.30;5.83;;;5.20;99.90;;;;;;4448227;28;656524;-73
2023/05/08 05:40:20;;;;;;;9.13;5.47;;;5.30;99.90;;;;;;4441828;28;655497;-73
2023/05/08 05:43:07;;;;;;;8.67;5.80;;;5.40;99.90;;;;;;4421504;28;656618;-73
2023/05/08 05:45:56;;;;;;;9.00;5.87;;;5.50;99.90;;;;;;4441273;28;655585;-73
2023/05/08 05:48:43;;;;;;;14.03;5.50;;;5.60;99.90;;;;;;4418497;28;656574;-74
2023/05/08 05:51:30;;;;;;;10.63;5.67;;;5.70;99.90;;;;;;4416069;28;656954;-73
2023/05/08 05:54:17;;;;;;;9.17;4.63;;;5.70;99.90;;;;;;4436465;28;657296;-74
2023/05/08 05:57:05;;;;;;;8.70;4.73;;;5.70;99.90;;;;;;4435273;28;655641;-74
2023/05/08 05:59:52;;;;;;;8.10;5.17;;;5.70;99.90;;;;;;4444510;28;655756;-73
2023/05/08 06:02:41;;;;;;;9.60;5.30;;;5.90;99.90;;;;;;4440121;28;655305;-72
2023/05/08 06:05:28;;;;;;;8.33;5.00;;;6.10;99.90;;;;;;4411452;28;656467;-72
2023/05/08 06:08:16;;;;;;;9.97;4.80;;;6.10;99.90;;;;;;4414695;28;655485;-72
2023/05/08 06:11:03;;;;;;;6.60;4.73;;;6.30;99.90;;;;;;4446140;28;655619;-72
2023/05/08 06:13:51;;;;;;;9.13;4.63;;;6.50;99.90;;;;;;4420739;28;655559;-71
2023/05/08 06:16:38;;;;;;;11.50;5.60;;;6.50;99.90;;;;;;4446030;28;656110;-72
2023/05/08 06:19:27;;;;;;;6.50;4.90;;;6.60;99.90;;;;;;4422605;28;656629;-72
2023/05/08 06:22:14;;;;;;;8.07;4.70;;;6.70;99.90;;;;;;4441923;28;658417;-72
2023/05/08 06:25:01;;;;;;;6.20;4.30;;;6.80;99.90;;;;;;4412181;28;655591;-72
2023/05/08 06:27:49;;;;;;;6.00;3.93;;;7.00;99.90;;;;;;4446157;28;655754;-71
2023/05/08 06:30:36;;;;;;;8.90;4.57;;;6.90;99.90;;;;;;4417520;28;655393;-72
2023/05/08 06:33:23;;;;;;;7.10;4.07;;;6.80;99.90;;;;;;4441785;28;655859;-72
2023/05/08 06:36:12;;;;;;;6.28;4.20;;;6.90;99.90;;;;;;4420175;28;655515;-72
2023/05/08 06:39:00;;;;;;;5.00;3.70;;;6.80;99.90;;;;;;4429443;28;656036;-72
2023/05/08 06:41:47;;;;;;;8.37;4.00;;;7.00;99.90;;;;;;4441543;28;655081;-71
2023/05/08 06:44:35;;;;;;;9.40;4.20;;;6.60;99.90;;;;;;4437199;28;655712;-71
2023/05/08 06:47:22;;;;;;;4.10;3.47;;;6.70;99.90;;;;;;4446277;28;655289;-72
2023/05/08 06:50:10;;;;;;;5.70;3.17;;;6.70;99.90;;;;;;4440358;28;654740;-71
2023/05/08 06:52:59;;;;;;;22.10;6.50;;;6.60;99.90;;;;;;4421857;28;656495;-72
2023/05/08 06:55:46;;;;;;;14.57;6.37;;;6.40;99.90;;;;;;4411726;28;656524;-71
2023/05/08 06:58:33;;;;;;;15.43;5.23;;;6.20;99.90;;;;;;4443232;28;658620;-71
2023/05/08 07:01:20;;;;;;;9.02;5.72;;;6.40;99.90;;;;;;4418950;28;656511;-72
2023/05/08 07:04:07;;;;;;;9.37;4.87;;;6.60;99.90;;;;;;4440834;28;656772;-70
2023/05/08 07:06:55;;;;;;;20.20;6.77;;;6.90;99.90;;;;;;4433857;28;655389;-71
2023/05/08 07:09:44;;;;;;;12.47;5.40;;;7.10;99.90;;;;;;4440088;28;656875;-72
2023/05/08 07:12:31;;;;;;;14.97;5.73;;;7.20;99.90;;;;;;4412918;28;656459;-72
2023/05/08 07:15:18;;;;;;;40.92;9.13;;;7.40;99.90;;;;;;4441358;28;657383;-72
2023/05/08 07:18:06;;;;;;;54.17;12.23;;;7.50;99.90;;;;;;4417818;28;657101;-72
2023/05/08 07:20:53;;;;;;;11.20;4.97;;;7.50;99.90;;;;;;4440358;28;658757;-71
2023/05/08 07:23:40;;;;;;;68.40;11.13;;;7.80;99.90;;;;;;4421462;28;656829;-72
2023/05/08 07:26:29;;;;;;;68.70;11.63;;;7.60;99.90;;;;;;4439184;28;657407;-71
2023/05/08 07:29:16;;;;;;;99.10;13.97;;;7.50;99.90;;;;;;4408372;28;658045;-71
2023/05/08 07:32:07;;;;;;;92.13;14.40;;;7.70;99.90;;;;;;4435389;28;657335;-71
2023/05/08 07:34:54;;;;;;;40.47;8.40;;;8.00;99.90;;;;;;4408456;28;657107;-71
2023/05/08 07:37:41;;;;;;;104.27;17.90;;;8.00;99.90;;;;;;4421355;28;656441;-71
2023/05/08 07:40:28;;;;;;;91.83;16.27;;;7.90;99.90;;;;;;4435963;28;659092;-72
2023/05/08 07:43:17;;;;;;;25.60;6.93;;;8.30;99.90;;;;;;4416151;28;658015;-71
2023/05/08 07:46:05;;;;;;;8.50;4.33;;;8.40;99.90;;;;;;4432496;28;656469;-72
2023/05/08 07:48:52;;;;;;;13.90;4.53;;;8.50;99.90;;;;;;4414931;28;655633;-71
2023/05/08 07:51:40;;;;;;;39.93;10.00;;;8.60;99.90;;;;;;4429815;28;656235;-71
2023/05/08 07:54:27;;;;;;;49.23;11.67;;;8.70;99.90;;;;;;4412623;28;658845;-72
2023/05/08 07:57:14;;;;;;;34.77;9.30;;;8.80;99.90;;;;;;4436810;28;658004;-71
2023/05/08 08:00:03;;;;;;;8.70;4.23;;;9.00;99.90;;;;;;4414549;28;656587;-71
2023/05/08 08:02:50;;;;;;;13.63;4.37;;;8.90;99.90;;;;;;4417915;28;656420;-72
2023/05/08 08:05:38;;;;;;;26.37;8.33;;;8.90;99.90;;;;;;4438547;28;657528;-73
2023/05/08 08:08:25;;;;;;;33.40;12.30;;;9.50;99.90;;;;;;4416206;28;656848;-72
2023/05/08 08:11:12;;;;;;;22.00;8.13;;;9.50;99.90;;;;;;4435579;28;658645;-71
2023/05/08 08:14:00;;;;;;;23.30;7.30;;;9.30;99.90;;;;;;4428736;28;656256;-72
2023/05/08 08:16:49;;;;;;;35.07;9.10;;;9.00;99.90;;;;;;4445737;28;656585;-72
2023/05/08 08:19:36;;;;;;;93.80;21.23;;;9.00;99.90;;;;;;4424802;28;656869;-73
2023/05/08 08:22:23;;;;;;;31.43;8.47;;;9.00;99.90;;;;;;4437330;28;658376;-72
2023/05/08 08:25:11;;;;;;;10.43;4.27;;;9.00;99.90;;;;;;4422557;28;656498;-72
2023/05/08 08:27:58;;;;;;;27.50;8.10;;;9.30;99.90;;;;;;4441561;28;657560;-73
2023/05/08 08:30:45;;;;;;;115.93;22.90;;;9.00;99.90;;;;;;4422485;28;656643;-72
2023/05/08 08:33:34;;;;;;;45.80;11.17;;;9.00;99.90;;;;;;4441387;28;658095;-72
2023/05/08 08:36:21;;;;;;;18.77;4.32;;;9.10;99.90;;;;;;4417200;28;657159;-74
2023/05/08 08:39:08;;;;;;;26.03;6.50;;;8.90;99.90;;;;;;4444643;28;657111;-72
2023/05/08 08:41:55;;;;;;;45.43;9.53;;;8.90;99.90;;;;;;4418174;28;660599;-72
2023/05/08 08:44:43;;;;;;;53.67;9.60;;;9.20;99.90;;;;;;4442144;28;657405;-72
2023/05/08 08:47:35;;;;;;;20.10;5.10;;;9.80;99.90;;;;;;4435606;28;656243;-73
2023/05/08 08:50:25;;;;;;;41.63;8.07;;;10.10;99.90;;;;;;4394110;28;656802;-73
2023/05/08 08:53:16;;;;;;;125.17;18.13;;;10.20;99.90;;;;;;4371123;28;659611;-73
2023/05/08 08:56:04;;;;;;;25.77;6.83;;;10.30;99.90;;;;;;4334640;28;659767;-73
2023/05/08 08:58:54;;;;;;;9.73;3.50;;;10.10;99.90;;;;;;4381534;28;657491;-73
2023/05/08 09:01:42;;;;;;;16.50;4.73;;;10.10;99.90;;;;;;4421965;28;657383;-72
2023/05/08 09:04:30;;;;;;;5.17;3.07;;;10.30;99.90;;;;;;4439170;28;658347;-72
2023/05/08 09:07:19;;;;;;;22.57;6.27;;;10.50;99.90;;;;;;4419777;28;657233;-72
2023/05/08 09:10:07;;;;;;;60.90;15.43;;;10.40;99.90;;;;;;4418163;28;658325;-73
2023/05/08 09:12:54;;;;;;;32.30;10.40;;;10.30;99.90;;;;;;4437545;28;658628;-73
2023/05/08 09:15:41;;;;;;;7.90;3.58;;;10.20;99.90;;;;;;4424949;28;658393;-73
2023/05/08 09:18:28;;;;;;;88.73;20.90;;;9.60;99.90;;;;;;4433740;28;659014;-72
2023/05/08 09:21:16;;;;;;;71.43;17.47;;;9.50;99.90;;;;;;4410797;28;658093;-73
2023/05/08 09:24:05;;;;;;;46.87;13.33;;;9.70;99.90;;;;;;4438395;28;657781;-72
2023/05/08 09:26:52;;;;;;;63.50;15.07;;;10.00;99.90;;;;;;4418404;28;658118;-71
2023/05/08 09:29:39;;;;;;;16.70;5.93;;;10.10;99.90;;;;;;4435964;28;660725;-71
2023/05/08 09:32:26;;;;;;;27.27;7.27;;;10.20;99.90;;;;;;4417793;28;657761;-71
2023/05/08 09:35:14;;;;;;;50.60;13.33;;;10.30;99.90;;;;;;4437283;28;657863;-71
2023/05/08 09:38:01;;;;;;;35.90;10.02;;;10.30;99.90;;;;;;4393903;28;658227;-71
2023/05/08 09:40:53;;;;;;;49.88;12.48;;;10.50;99.90;;;;;;4419154;28;659109;-71
2023/05/08 09:43:41;;;;;;;59.63;12.60;;;10.60;99.90;;;;;;4375340;28;659210;-71
2023/05/08 09:46:28;;;;;;;69.60;17.17;;;10.80;99.90;;;;;;4422901;28;658870;-71
2023/05/08 09:49:17;;;;;;;18.53;5.40;;;10.90;99.90;;;;;;4400404;28;659270;-71
2023/05/08 09:52:05;;;;;;;8.07;3.50;;;10.70;99.90;;;;;;4415366;28;657506;-71
2023/05/08 09:54:59;;;;;;;10.23;3.73;;;10.70;99.90;;;;;;4420333;28;656903;-72
2023/05/08 09:57:55;;;;;;;19.27;5.45;;;11.10;99.90;;;;;;4398895;28;657261;-71
2023/05/08 10:00:42;;;;;;;13.53;4.97;;;10.90;99.90;;;;;;4375041;28;658043;-72
2023/05/08 10:03:47;;;;;;;12.97;4.77;;;11.10;99.90;;;;;;4422753;28;658146;-72
2023/05/08 10:06:36;;;;;;;7.13;3.10;;;11.70;99.90;;;;;;4419831;28;657716;-72
2023/05/08 10:09:23;;;;;;;42.27;13.20;;;12.10;99.90;;;;;;4421653;28;657397;-72
2023/05/08 10:12:10;;;;;;;6.30;2.97;;;12.40;99.90;;;;;;4398125;28;659319;-73
2023/05/08 10:14:59;;;;;;;18.60;7.00;;;12.40;99.90;;;;;;4420449;28;656291;-73
2023/05/08 10:17:53;;;;;;;18.53;6.73;;;12.20;99.90;;;;;;4401278;28;657255;-72
2023/05/08 10:20:43;;;;;;;17.40;6.50;;;12.40;99.90;;;;;;4376835;28;658828;-73
2023/05/08 10:23:30;;;;;;;10.10;4.73;;;12.10;99.90;;;;;;4411064;28;657372;-72
2023/05/08 10:26:23;;;;;;;25.53;7.50;;;12.00;99.90;;;;;;4421699;28;657786;-73
2023/05/08 10:29:13;;;;;;;42.17;12.60;;;11.80;99.90;;;;;;4374704;28;657938;-72
2023/05/08 10:32:03;;;;;;;17.27;6.33;;;11.70;99.90;;;;;;4397998;28;659437;-74
2023/05/08 10:34:53;;;;;;;24.70;7.73;;;11.80;99.90;;;;;;4403030;28;657663;-73
2023/05/08 10:37:41;;;;;;;23.23;5.50;;;11.60;99.90;;;;;;4428052;28;658239;-72
2023/05/08 10:40:28;;;;;;;22.17;7.60;;;11.60;99.90;;;;;;4434623;28;658953;-73
2023/05/08 10:43:16;;;;;;;23.93;7.43;;;11.40;99.90;;;;;;4413267;28;657801;-73
2023/05/08 10:46:20;;;;;;;24.33;7.77;;;11.50;99.90;;;;;;4440389;28;658379;-72
2023/05/08 10:49:14;;;;;;;63.53;13.73;;;11.50;99.90;;;;;;4391445;28;658291;-73
2023/05/08 10:52:09;;;;;;;27.33;7.50;;;11.40;99.90;;;;;;4412798;28;658602;-73
2023/05/08 10:55:16;;;;;;;38.07;9.90;;;11.40;99.90;;;;;;4418261;28;657665;-73
2023/05/08 10:58:11;;;;;;;19.20;6.10;;;11.40;99.90;;;;;;4412041;28;658599;-73
2023/05/08 11:01:14;;;;;;;37.47;10.43;;;11.40;99.90;;;;;;4406542;28;657878;-72
2023/05/08 11:04:01;;;;;;;25.93;8.03;;;11.50;99.90;;;;;;4395682;28;659175;-74
2023/05/08 11:06:51;;;;;;;26.27;8.10;;;11.40;99.90;;;;;;4436761;28;658093;-74
2023/05/08 11:09:46;;;;;;;13.07;4.17;;;11.20;99.90;;;;;;4413586;28;659777;-72
2023/05/08 11:12:35;;;;;;;16.80;5.40;;;11.50;99.90;;;;;;4413130;28;657907;-74
2023/05/08 11:15:36;;;;;;;60.90;15.07;;;11.80;99.90;;;;;;4418655;28;657497;-74
2023/05/08 11:18:24;;;;;;;19.60;6.57;;;12.10;99.90;;;;;;4405277;28;659573;-74
2023/05/08 11:21:15;;;;;;;9.37;3.13;;;12.20;99.90;;;;;;4414428;28;657654;-73
2023/05/08 11:24:07;;;;;;;3.87;2.53;;;12.60;99.00;;;;;;4410431;28;657928;-74
2023/05/08 11:26:55;;;;;;;21.07;5.17;;;12.40;96.80;;;;;;4428545;28;656957;-73
2023/05/08 11:29:43;;;;;;;51.67;12.67;;;12.20;95.00;;;;;;4439025;28;657094;-73
2023/05/08 11:33:03;;;;;;;25.63;7.63;;;12.10;96.20;;;;;;4417053;28;658818;-73
2023/05/08 11:35:55;;;;;;;25.03;7.60;;;11.90;98.40;;;;;;4389253;28;657982;-73
2023/05/08 11:38:42;;;;;;;34.00;8.23;;;11.90;98.10;;;;;;4414675;28;658189;-73
2023/05/08 11:41:31;;;;;;;18.17;4.97;;;12.30;97.40;;;;;;4437303;28;657584;-74
2023/05/08 11:44:19;;;;;;;4.27;2.43;;;12.40;98.20;;;;;;4411075;28;658304;-72
2023/05/08 11:47:06;;;;;;;10.90;3.33;;;12.40;96.60;;;;;;4418134;28;656807;-74
2023/05/08 11:49:55;;;;;;;4.43;2.27;;;12.70;97.80;;;;;;4437496;28;658195;-72
2023/05/08 11:52:42;;;;;;;34.60;9.60;;;12.50;96.40;;;;;;4415145;28;657149;-71
2023/05/08 11:55:30;;;;;;;11.00;4.47;;;12.10;96.30;;;;;;4422682;28;657632;-73
2023/05/08 11:58:19;;;;;;;30.50;8.63;;;12.00;98.10;;;;;;4441504;28;657850;-72
2023/05/08 12:01:06;;;;;;;55.90;12.53;;;11.60;99.90;;;;;;4421588;28;657797;-73
2023/05/08 12:04:00;;;;;;;7.77;3.53;;;11.40;99.90;;;;;;4436122;28;659352;-74
2023/05/08 12:06:50;;;;;;;4.80;3.07;;;11.30;99.90;;;;;;4395126;28;656390;-73
2023/05/08 12:09:37;;;;;;;44.73;12.03;;;11.40;99.90;;;;;;4416235;28;657673;-74
2023/05/08 12:12:33;;;;;;;30.23;7.77;;;11.40;99.90;;;;;;4428768;28;658730;-73
2023/05/08 12:15:22;;;;;;;11.40;4.97;;;11.60;99.90;;;;;;4397836;28;658584;-72
2023/05/08 12:18:09;;;;;;;4.87;2.87;;;11.40;99.90;;;;;;4440751;28;658020;-73
2023/05/08 12:20:57;;;;;;;11.93;4.47;;;11.60;99.90;;;;;;4423580;28;657016;-73
2023/05/08 12:23:44;;;;;;;16.37;5.13;;;11.90;99.90;;;;;;4436144;28;657221;-72
2023/05/08 12:26:35;;;;;;;26.43;7.80;;;12.10;99.90;;;;;;4421826;28;658877;-74
2023/05/08 12:29:22;;;;;;;46.67;9.63;;;12.30;99.40;;;;;;4410556;28;658588;-73
2023/05/08 12:32:11;;;;;;;48.92;9.50;;;12.20;98.80;;;;;;4441468;28;658033;-75
2023/05/08 12:34:58;;;;;;;37.53;8.83;;;12.30;98.60;;;;;;4415333;28;658044;-73
2023/05/08 12:37:45;;;;;;;21.13;5.30;;;12.40;98.40;;;;;;4422653;28;657356;-72
2023/05/08 12:40:33;;;;;;;25.67;7.10;;;12.10;97.80;;;;;;4435086;28;658257;-73
2023/05/08 12:43:20;;;;;;;8.60;3.60;;;12.20;98.70;;;;;;4423556;28;658261;-73
2023/05/08 12:46:11;;;;;;;13.43;4.83;;;12.10;97.60;;;;;;4441337;28;657241;-73
2023/05/08 12:49:03;;;;;;;30.63;9.00;;;11.70;99.00;;;;;;4416082;28;658656;-74
2023/05/08 12:51:51;;;;;;;45.28;10.25;;;11.30;99.90;;;;;;4423416;28;657568;-73
2023/05/08 12:54:39;;;;;;;44.13;9.30;;;11.40;99.90;;;;;;4437174;28;659649;-73
2023/05/08 12:57:27;;;;;;;20.83;5.70;;;11.40;99.90;;;;;;4421409;28;657923;-73
2023/05/08 13:00:16;;;;;;;20.60;5.83;;;11.70;99.70;;;;;;4436899;28;656956;-72
2023/05/08 13:03:03;;;;;;;12.53;4.50;;;12.10;99.90;;;;;;4418699;28;659353;-72
2023/05/08 13:05:52;;;;;;;16.90;5.17;;;12.90;99.90;;;;;;4424598;28;657450;-73
2023/05/08 13:08:40;;;;;;;38.30;10.70;;;13.20;99.90;;;;;;4442284;28;658703;-73
2023/05/08 13:11:31;;;;;;;16.23;5.80;;;13.20;98.50;;;;;;4417586;28;659238;-74
2023/05/08 13:14:19;;;;;;;9.53;3.57;;;12.90;99.10;;;;;;4407021;28;658273;-73
2023/05/08 13:17:06;;;;;;;10.07;3.70;;;12.90;98.40;;;;;;4420433;28;656358;-73
2023/05/08 13:19:53;;;;;;;5.53;2.63;;;12.80;96.90;;;;;;4440225;28;657812;-74
2023/05/08 13:22:42;;;;;;;24.30;5.43;;;12.70;95.20;;;;;;4424930;28;656470;-73
2023/05/08 13:25:29;;;;;;;19.03;5.23;;;13.00;96.40;;;;;;4441482;28;657438;-74
2023/05/08 13:28:17;;;;;;;5.37;2.20;;;13.30;95.10;;;;;;4421711;28;657878;-73
2023/05/08 13:31:04;;;;;;;16.33;5.33;;;13.10;93.60;;;;;;4433775;28;656951;-73
2023/05/08 13:33:51;;;;;;;17.13;5.97;;;12.80;94.70;;;;;;4422018;28;658470;-73
2023/05/08 13:36:38;;;;;;;11.40;4.00;;;12.70;95.90;;;;;;4439526;28;657463;-73
2023/05/08 13:39:27;;;;;;;11.20;3.70;;;12.30;95.40;;;;;;4421202;28;657400;-73
2023/05/08 13:42:14;;;;;;;12.70;4.77;;;12.10;96.20;;;;;;4441432;28;657799;-74
2023/05/08 13:45:02;;;;;;;25.43;7.03;;;12.10;98.60;;;;;;4423115;28;657859;-74
2023/05/08 13:47:49;;;;;;;34.00;9.90;;;12.20;98.00;;;;;;4431065;28;657405;-73
2023/05/08 13:50:36;;;;;;;15.40;5.87;;;12.10;98.20;;;;;;4417042;28;657612;-74
2023/05/08 13:53:24;;;;;;;17.97;4.70;;;11.90;99.30;;;;;;4440803;28;658882;-75
2023/05/08 13:56:13;;;;;;;18.90;5.67;;;11.90;98.10;;;;;;4422527;28;657161;-74
2023/05/08 13:59:00;;;;;;;9.17;4.03;;;11.80;99.20;;;;;;4432277;28;658036;-73
2023/05/08 14:01:47;;;;;;;18.30;5.40;;;11.90;99.90;;;;;;4446665;28;656679;-75
2023/05/08 14:04:34;;;;;;;11.93;4.50;;;11.80;98.40;;;;;;4432983;28;658085;-74
2023/05/08 14:07:22;;;;;;;8.83;3.63;;;11.60;97.50;;;;;;4418449;28;657669;-73
2023/05/08 14:10:10;;;;;;;18.93;6.20;;;11.80;99.20;;;;;;4444373;28;656052;-74
2023/05/08 14:12:58;;;;;;;12.77;4.87;;;12.30;99.90;;;;;;4420723;28;658471;-73
2023/05/08 14:15:46;;;;;;;11.10;4.73;;;12.90;97.00;;;;;;4407952;28;658862;-74
2023/05/08 14:18:33;;;;;;;14.00;4.63;;;13.80;96.80;;;;;;4429354;28;658322;-73
2023/05/08 14:21:20;;;;;;;13.93;4.33;;;14.10;93.80;;;;;;4407311;28;657665;-74
2023/05/08 14:24:08;;;;;;;38.87;10.13;;;14.20;92.60;;;;;;4444542;28;657631;-74
2023/05/08 14:26:55;;;;;;;53.53;12.97;;;13.70;91.40;;;;;;4420867;28;658761;-74
2023/05/08 14:29:44;;;;;;;31.17;10.07;;;12.90;92.70;;;;;;4438652;28;659176;-74